Terminal Aerodrome Forecast
Issued by NWS

Home | Current Version | Previous Version | Text Only | Print | Product List | Glossary Off
Versions: 1 2 3 4 5 6 7 8 9 10 11 12 13 14 15 16 17 18 19 20 21

000
FTUS43 KABR 172329
TAFMBG
TAF
KMBG 172329Z 1800/1824 10012KT P6SM OVC110
     FM180200 05007KT 4SM -RASN OVC035
     FM180800 35007KT 3SM -SN OVC008
     FM181800 34008KT 5SM -RA OVC015
     FM182200 34013KT P6SM BKN035=

USA.gov is the U.S. government's official web portal to all federal, state and local government web resources and services.